Time;durP1;ratioP1;P1;durP2;ratioP2;P2;SDS_P1;SDS_P2;PMS_P1;PMS_P2;Temp;Humidity;BMP_temperature;BMP_pressure;BME280_temperature;BME280_humidity;BME280_pressure;Samples;Min_cycle;Max_cycle;Signal;HPM_P1;HPM_P2
2022/12/18 00:00:32;;;;;;;1999.90;999.90;;;-5.20;99.90;;;;;;6722229;88;20206;-76
2022/12/18 00:10:32;;;;;;;1999.90;999.90;;;-5.10;99.90;;;;;;6722891;88;20727;-76
2022/12/18 00:20:38;;;;;;;1999.90;999.90;;;-5.30;99.90;;;;;;6721756;88;20637;-77
2022/12/18 00:30:38;;;;;;;1999.90;999.90;;;-5.50;99.90;;;;;;6723276;88;20757;-76
2022/12/18 00:40:39;;;;;;;1999.90;999.90;;;-5.60;99.90;;;;;;6720024;88;20194;-76
2022/12/18 00:50:39;;;;;;;1999.90;999.90;;;-5.80;99.90;;;;;;6722749;88;20236;-76
2022/12/18 01:00:40;;;;;;;1999.90;999.90;;;-5.90;99.90;;;;;;6722121;88;20198;-75
2022/12/18 01:10:41;;;;;;;1999.90;999.90;;;-5.90;99.90;;;;;;6728297;88;20218;-76
2022/12/18 01:20:42;;;;;;;1999.90;999.90;;;-5.90;99.90;;;;;;6720826;88;20577;-76
2022/12/18 01:30:42;;;;;;;1999.90;999.90;;;-6.10;99.90;;;;;;6720806;88;20268;-75
2022/12/18 01:40:43;;;;;;;1999.90;999.90;;;-6.10;99.90;;;;;;6721234;88;20185;-76
2022/12/18 01:50:43;;;;;;;1999.90;999.90;;;-6.00;99.90;;;;;;6719051;88;20241;-76
2022/12/18 02:00:44;;;;;;;1999.90;999.90;;;-5.90;99.90;;;;;;6723867;88;20319;-76
2022/12/18 02:11:18;;;;;;;1999.90;999.90;;;-6.00;99.90;;;;;;6724450;88;20208;-76
2022/12/18 02:21:32;;;;;;;1999.90;999.90;;;-6.00;99.90;;;;;;6719326;88;20643;-76
2022/12/18 02:31:40;;;;;;;1999.90;999.90;;;-6.00;99.90;;;;;;6722721;88;20177;-76
2022/12/18 02:41:41;;;;;;;1999.90;999.90;;;-6.00;99.90;;;;;;6724250;88;20198;-75
2022/12/18 02:52:01;;;;;;;1999.90;999.90;;;-6.20;99.90;;;;;;6724740;88;20215;-75
2022/12/18 03:02:39;;;;;;;1999.90;999.90;;;-6.50;99.90;;;;;;6723088;88;20248;-77
2022/12/18 03:12:44;;;;;;;1999.90;999.90;;;-6.50;99.90;;;;;;6721933;88;20678;-74
2022/12/18 03:22:50;;;;;;;1999.90;999.90;;;-6.50;99.90;;;;;;6725691;88;20324;-76
2022/12/18 03:33:02;;;;;;;1999.90;999.90;;;-6.40;99.90;;;;;;6726896;88;20298;-76
2022/12/18 03:43:39;;;;;;;1999.90;999.90;;;-6.50;99.90;;;;;;6723655;88;20198;-77
2022/12/18 03:53:59;;;;;;;1999.90;999.90;;;-6.80;99.90;;;;;;6720164;88;20214;-74
2022/12/18 04:04:02;;;;;;;1999.90;999.90;;;-6.80;99.90;;;;;;6719089;88;20193;-75
2022/12/18 04:14:02;;;;;;;1999.90;999.90;;;-6.70;99.90;;;;;;6727361;88;20237;-74
2022/12/18 04:24:03;;;;;;;1999.90;999.90;;;-6.80;99.90;;;;;;6722622;88;20182;-77
2022/12/18 04:34:04;;;;;;;1999.90;999.90;;;-6.90;99.90;;;;;;6724269;88;20201;-76
2022/12/18 04:44:04;;;;;;;1999.90;999.90;;;-6.90;99.90;;;;;;6720728;88;20201;-75
2022/12/18 04:54:05;;;;;;;1999.90;999.90;;;-6.80;99.90;;;;;;6714983;88;20308;-75
2022/12/18 05:04:05;;;;;;;1999.90;999.90;;;-6.90;99.90;;;;;;6710595;88;20205;-75
2022/12/18 05:14:06;;;;;;;1999.90;999.90;;;-6.80;99.90;;;;;;6712296;88;20276;-75
2022/12/18 05:24:06;;;;;;;1999.90;999.90;;;-6.80;99.90;;;;;;6712917;88;20202;-75
2022/12/18 05:34:07;;;;;;;1999.90;999.90;;;-6.80;99.90;;;;;;6707065;88;20337;-75
2022/12/18 05:44:07;;;;;;;1999.90;999.90;;;-6.70;99.90;;;;;;6711084;88;20221;-75
2022/12/18 05:54:08;;;;;;;1999.90;999.90;;;-6.70;99.90;;;;;;6708029;88;20238;-74
2022/12/18 06:04:08;;;;;;;1999.90;999.90;;;-6.70;99.90;;;;;;6708443;88;20220;-75
2022/12/18 06:14:09;;;;;;;1999.90;999.90;;;-6.60;99.90;;;;;;6710768;88;20592;-74
2022/12/18 06:24:10;;;;;;;1999.90;999.90;;;-6.50;99.90;;;;;;6730263;88;20706;-75
2022/12/18 06:34:10;;;;;;;1999.90;999.90;;;-6.30;99.90;;;;;;6709901;88;20605;-75
2022/12/18 06:44:11;;;;;;;1999.90;999.90;;;-6.30;99.90;;;;;;6712846;88;20286;-75
2022/12/18 06:54:12;;;;;;;1999.90;999.90;;;-6.20;99.90;;;;;;6712111;88;20312;-75
2022/12/18 07:04:12;;;;;;;1999.90;999.90;;;-6.10;99.90;;;;;;6706817;88;20194;-74
2022/12/18 07:14:13;;;;;;;1999.90;999.90;;;-6.10;99.90;;;;;;6692922;88;20203;-75
2022/12/18 07:24:14;;;;;;;1999.90;999.90;;;-6.10;99.90;;;;;;6693049;88;20201;-75
2022/12/18 07:34:15;;;;;;;1999.90;999.90;;;-6.00;99.90;;;;;;6695059;88;20757;-75
2022/12/18 07:44:15;;;;;;;1999.90;999.90;;;-6.00;99.90;;;;;;6693511;88;20535;-74
2022/12/18 07:54:16;;;;;;;1999.90;999.90;;;-5.90;99.90;;;;;;6692420;88;20220;-73
2022/12/18 08:04:16;;;;;;;1999.90;999.90;;;-5.80;99.90;;;;;;6695655;88;20658;-74
2022/12/18 08:14:16;;;;;;;1999.90;999.90;;;-5.80;99.90;;;;;;6699563;88;20209;-74
2022/12/18 08:24:17;;;;;;;1999.90;999.90;;;-5.70;99.90;;;;;;6701966;88;20334;-73
2022/12/18 08:34:18;;;;;;;1999.90;999.90;;;-5.60;99.90;;;;;;6699631;88;20222;-74
2022/12/18 08:54:37;;;;;;;1999.90;999.90;;;-5.00;99.90;;;;;;6707161;88;20305;-73
2022/12/18 09:04:39;;;;;;;1999.90;999.90;;;-4.70;99.90;;;;;;6706314;88;20666;-73
2022/12/18 09:14:40;;;;;;;1999.90;999.90;;;-4.30;99.90;;;;;;6722775;88;20193;-73
2022/12/18 09:24:40;;;;;;;1999.90;999.90;;;-3.80;99.90;;;;;;6712869;88;20214;-74
2022/12/18 09:34:41;;;;;;;1999.90;999.90;;;-3.90;99.90;;;;;;6711278;88;20269;-74
2022/12/18 09:44:47;;;;;;;1999.90;999.90;;;-3.80;99.90;;;;;;6711079;88;20719;-76
2022/12/18 09:54:56;;;;;;;1999.90;999.90;;;-3.40;99.90;;;;;;6712325;88;20600;-72
2022/12/18 10:05:08;;;;;;;1999.90;999.90;;;-3.30;99.90;;;;;;6713323;88;20236;-76
2022/12/18 10:15:23;;;;;;;1999.90;999.90;;;-3.40;99.90;;;;;;6710969;88;20178;-73
2022/12/18 10:25:55;;;;;;;1999.90;999.90;;;-3.30;99.90;;;;;;6712019;88;20309;-73
2022/12/18 10:35:56;;;;;;;1999.90;999.90;;;-3.20;99.90;;;;;;6713478;88;20344;-73
2022/12/18 10:46:08;;;;;;;1999.90;999.90;;;-3.00;99.90;;;;;;6714919;88;20300;-76
2022/12/18 10:56:09;;;;;;;1999.90;999.90;;;-2.90;99.90;;;;;;6712370;88;20212;-72
2022/12/18 11:06:12;;;;;;;1999.90;999.90;;;-2.90;99.90;;;;;;6714950;88;20203;-73
2022/12/18 11:16:19;;;;;;;1999.90;999.90;;;-2.70;99.90;;;;;;6715493;88;20239;-73
2022/12/18 11:26:21;;;;;;;1999.90;999.90;;;-2.70;99.90;;;;;;6714477;88;20844;-73
2022/12/18 11:36:23;;;;;;;1999.90;999.90;;;-2.80;99.90;;;;;;6714342;88;20259;-73
2022/12/18 11:46:43;;;;;;;1999.90;999.90;;;-2.70;99.90;;;;;;6714926;88;20210;-74
2022/12/18 11:56:55;;;;;;;1999.90;999.90;;;-2.80;99.90;;;;;;6712942;88;20201;-74
2022/12/18 12:07:21;;;;;;;1999.90;999.90;;;-2.70;99.90;;;;;;6700382;88;20638;-75
2022/12/18 12:17:45;;;;;;;1999.90;999.90;;;-2.60;99.90;;;;;;6692648;88;20208;-74
2022/12/18 12:27:50;;;;;;;1999.90;999.90;;;-2.70;99.90;;;;;;6702513;88;21021;-73
2022/12/18 12:38:25;;;;;;;1999.90;999.90;;;-2.60;99.90;;;;;;6696220;88;20266;-74
2022/12/18 12:48:43;;;;;;;1999.90;999.90;;;-2.50;99.90;;;;;;6693057;88;21075;-74
2022/12/18 12:59:01;;;;;;;1999.90;999.90;;;-2.50;99.90;;;;;;6692904;88;20204;-74
2022/12/18 13:09:03;;;;;;;1999.90;999.90;;;-2.40;99.90;;;;;;6708677;88;20295;-74
2022/12/18 13:19:04;;;;;;;1999.90;999.90;;;-2.20;99.90;;;;;;6724982;88;20189;-75
2022/12/18 13:29:05;;;;;;;1999.90;999.90;;;-2.10;99.90;;;;;;6711039;88;20285;-75
2022/12/18 13:39:18;;;;;;;1999.90;999.90;;;-2.30;99.90;;;;;;6706224;88;20200;-74
2022/12/18 13:49:35;;;;;;;1999.90;999.90;;;-2.30;99.90;;;;;;6712752;88;20264;-75
2022/12/18 13:59:38;;;;;;;1999.90;999.90;;;-2.30;99.90;;;;;;6710991;88;20258;-74
2022/12/18 14:09:57;;;;;;;1999.90;999.90;;;-2.40;99.90;;;;;;6715993;88;20238;-74
2022/12/18 14:19:57;;;;;;;1999.90;999.90;;;-2.30;99.90;;;;;;6711213;88;20565;-76
2022/12/18 14:29:58;;;;;;;1999.90;999.90;;;-2.40;99.90;;;;;;6712046;88;20736;-75
2022/12/18 14:40:04;;;;;;;1999.90;999.90;;;-2.40;99.90;;;;;;6711895;88;20210;-74
2022/12/18 14:50:13;;;;;;;1999.90;999.90;;;-2.40;99.90;;;;;;6719991;88;20232;-75
2022/12/18 15:00:20;;;;;;;1999.90;999.90;;;-2.40;99.90;;;;;;6729234;88;20165;-72
2022/12/18 15:10:24;;;;;;;;;;;-2.50;99.90;;;;;;6729957;88;20190;-75
2022/12/18 15:20:25;;;;;;;1999.90;999.90;;;-2.50;99.90;;;;;;6717154;88;20053;-73
2022/12/18 15:30:26;;;;;;;1999.90;999.90;;;-2.50;99.90;;;;;;6724442;88;20730;-73
2022/12/18 15:40:26;;;;;;;1999.90;999.90;;;-2.60;99.90;;;;;;6721730;88;20351;-73
2022/12/18 15:50:27;;;;;;;1999.90;999.90;;;-2.60;99.90;;;;;;6721480;88;20308;-71
2022/12/18 16:00:28;;;;;;;1999.90;999.90;;;-2.60;99.90;;;;;;6718250;88;20209;-76
2022/12/18 16:10:29;;;;;;;1999.90;999.90;;;-2.70;99.90;;;;;;6693422;88;20225;-75
2022/12/18 16:20:29;;;;;;;1999.90;999.90;;;-2.70;99.90;;;;;;6694742;88;20248;-76
2022/12/18 16:30:30;;;;;;;1999.90;999.90;;;-2.70;99.90;;;;;;6696688;88;20222;-75
2022/12/18 16:40:32;;;;;;;1999.90;999.90;;;-2.70;99.90;;;;;;6695086;88;20216;-74
2022/12/18 16:50:32;;;;;;;1999.90;999.90;;;-2.80;99.90;;;;;;6692514;88;20206;-75
2022/12/18 17:00:33;;;;;;;1999.90;999.90;;;-2.90;99.90;;;;;;6693270;88;20264;-76
2022/12/18 17:10:36;;;;;;;1999.90;999.90;;;-2.90;99.90;;;;;;6696873;88;20283;-76
2022/12/18 17:20:37;;;;;;;1999.90;999.90;;;-2.90;99.90;;;;;;6695415;88;20367;-74
2022/12/18 17:30:37;;;;;;;1999.90;999.90;;;-2.90;99.90;;;;;;6696508;88;20221;-74
2022/12/18 17:40:39;;;;;;;1999.90;999.90;;;-2.90;99.90;;;;;;6694591;88;20300;-73
2022/12/18 17:50:40;;;;;;;1999.90;999.90;;;-2.90;99.90;;;;;;6690149;88;20180;-74
2022/12/18 18:00:41;;;;;;;1999.90;999.90;;;-2.90;99.90;;;;;;6690012;88;20225;-75
2022/12/18 18:10:41;;;;;;;1999.90;999.90;;;-2.90;99.90;;;;;;6718317;88;20196;-75
2022/12/18 18:20:42;;;;;;;1999.90;999.90;;;-2.90;99.90;;;;;;6724911;88;20214;-74
2022/12/18 18:30:42;;;;;;;1999.90;999.90;;;-2.90;99.90;;;;;;6709630;88;20655;-74
2022/12/18 18:40:43;;;;;;;1999.90;999.90;;;-2.90;99.90;;;;;;6713077;88;20705;-75
2022/12/18 18:50:44;;;;;;;1999.90;999.90;;;-2.80;99.90;;;;;;6713605;88;20699;-74
2022/12/18 19:00:57;;;;;;;1999.90;999.90;;;-2.70;99.90;;;;;;6715367;88;20221;-75
2022/12/18 19:10:59;;;;;;;1999.90;999.90;;;-2.70;99.90;;;;;;6711531;88;20182;-74
2022/12/18 19:21:02;;;;;;;1999.90;999.90;;;-2.60;99.90;;;;;;6715506;88;20772;-74
2022/12/18 19:31:06;;;;;;;1999.90;999.90;;;-2.50;99.90;;;;;;6719511;88;20693;-74
2022/12/18 19:41:07;;;;;;;1999.90;999.90;;;-2.40;99.90;;;;;;6715859;88;20196;-74
2022/12/18 19:51:10;;;;;;;1999.90;999.90;;;-2.30;99.90;;;;;;6711789;88;20389;-76
2022/12/18 20:01:13;;;;;;;1999.90;999.90;;;-2.30;99.90;;;;;;6709356;88;20218;-74
2022/12/18 20:11:13;;;;;;;1999.90;999.90;;;-2.20;99.90;;;;;;6716323;88;20181;-75
2022/12/18 20:21:14;;;;;;;1999.90;999.90;;;-2.10;99.90;;;;;;6712293;88;20190;-75
2022/12/18 20:31:15;;;;;;;1999.90;999.90;;;-2.00;99.90;;;;;;6720008;88;20528;-76
2022/12/18 20:41:18;;;;;;;1999.90;999.90;;;-1.90;99.90;;;;;;6715912;88;20211;-74
2022/12/18 20:51:19;;;;;;;1999.90;999.90;;;-1.80;99.90;;;;;;6709570;88;21179;-73
2022/12/18 21:01:21;;;;;;;1999.90;999.90;;;-1.70;99.90;;;;;;6710581;88;20252;-73
2022/12/18 21:21:46;;;;;;;1999.90;999.90;;;-1.60;99.90;;;;;;6723653;88;20181;-73
2022/12/18 21:31:47;;;;;;;1999.90;999.90;;;-1.50;99.90;;;;;;6708426;88;20207;-73
2022/12/18 21:52:07;;;;;;;1999.90;999.90;;;-1.30;99.90;;;;;;6711643;88;20614;-75
2022/12/18 22:02:13;;;;;;;1999.90;999.90;;;-1.30;99.90;;;;;;6709825;88;20336;-75
2022/12/18 22:12:33;;;;;;;1999.90;999.90;;;-1.20;99.90;;;;;;6695880;88;20222;-75
2022/12/18 22:22:34;;;;;;;1999.90;999.90;;;-1.20;99.90;;;;;;6697511;88;20792;-74
2022/12/18 22:32:35;;;;;;;1999.90;999.90;;;-1.20;99.90;;;;;;6695656;88;20205;-74
2022/12/18 22:42:35;;;;;;;1999.90;999.90;;;-1.20;99.90;;;;;;6701302;88;20182;-74
2022/12/18 22:52:36;;;;;;;1999.90;999.90;;;-1.10;99.90;;;;;;6699458;88;20650;-74
2022/12/18 23:02:36;;;;;;;1999.90;999.90;;;-1.10;99.90;;;;;;6677124;77;20202;-76
2022/12/18 23:12:37;;;;;;;1999.90;999.90;;;-1.00;99.90;;;;;;6667962;88;20222;-77
2022/12/18 23:22:37;;;;;;;1999.90;999.90;;;-1.00;99.90;;;;;;6663194;88;20188;-76
2022/12/18 23:32:38;;;;;;;1999.90;999.90;;;-0.90;99.90;;;;;;6661438;88;20273;-76
2022/12/18 23:42:38;;;;;;;1999.90;999.90;;;-0.90;99.90;;;;;;6659942;88;20374;-76
2022/12/18 23:52:39;;;;;;;1999.90;999.90;;;-0.80;99.90;;;;;;6659369;88;20737;-76
